createdAt,value
2022-09-14T00:00:03.696Z,962.23
2022-09-14T00:01:24.098Z,962.22
2022-09-14T00:02:05.363Z,962.21
2022-09-14T00:03:04.560Z,962.23
2022-09-14T00:04:04.665Z,962.23
2022-09-14T00:05:04.907Z,962.27
2022-09-14T00:06:05.150Z,962.31
2022-09-14T00:07:05.388Z,962.27
2022-09-14T00:08:05.628Z,962.33
2022-09-14T00:09:05.868Z,962.29
2022-09-14T00:10:06.119Z,962.30
2022-09-14T00:11:06.359Z,962.26
2022-09-14T00:12:06.619Z,962.25
2022-09-14T00:13:06.867Z,962.26
2022-09-14T00:14:07.110Z,962.23
2022-09-14T00:15:07.341Z,962.21
2022-09-14T00:16:07.627Z,962.25
2022-09-14T00:17:07.945Z,962.22
2022-09-14T00:18:08.159Z,962.23
2022-09-14T00:19:08.401Z,962.26
2022-09-14T00:20:08.641Z,962.28
2022-09-14T00:21:08.882Z,962.26
2022-09-14T00:22:09.132Z,962.25
2022-09-14T00:23:09.376Z,962.21
2022-09-14T00:24:09.613Z,962.19
2022-09-14T00:25:09.853Z,962.19
2022-09-14T00:26:10.093Z,962.13
2022-09-14T00:27:10.344Z,962.11
2022-09-14T00:28:11.524Z,962.07
2022-09-14T00:29:10.824Z,962.02
2022-09-14T00:30:11.066Z,962.04
2022-09-14T00:31:11.309Z,961.96
2022-09-14T00:32:11.586Z,961.98
2022-09-14T00:33:11.845Z,962.00
2022-09-14T00:34:12.088Z,962.02
2022-09-14T00:35:12.326Z,962.05
2022-09-14T00:36:12.576Z,962.07
2022-09-14T00:37:12.817Z,962.08
2022-09-14T00:38:13.058Z,962.04
2022-09-14T00:39:13.297Z,962.08
2022-09-14T00:40:13.596Z,962.07
2022-09-14T00:41:13.828Z,962.04
2022-09-14T00:42:14.148Z,962.08
2022-09-14T00:43:14.349Z,962.06
2022-09-14T00:44:14.603Z,962.13
2022-09-14T00:45:14.829Z,962.17
2022-09-14T00:46:15.123Z,962.17
2022-09-14T00:47:16.138Z,962.17
2022-09-14T00:48:15.680Z,962.16
2022-09-14T00:49:15.920Z,962.20
2022-09-14T00:50:16.170Z,962.18
2022-09-14T00:51:16.412Z,962.14
2022-09-14T00:52:17.481Z,962.08
2022-09-14T00:53:16.910Z,962.08
2022-09-14T00:54:17.152Z,962.01
2022-09-14T00:55:17.392Z,961.95
2022-09-14T00:56:17.661Z,961.96
2022-09-14T00:57:18.752Z,961.98
2022-09-14T00:58:18.183Z,961.97
2022-09-14T00:59:18.420Z,961.97
2022-09-14T01:00:18.665Z,961.95
2022-09-14T01:01:19.231Z,961.91
2022-09-14T01:02:19.235Z,961.90
2022-09-14T01:03:19.464Z,961.87
2022-09-14T01:04:19.705Z,961.89
2022-09-14T01:05:19.946Z,961.86
2022-09-14T01:06:20.224Z,961.87
2022-09-14T01:07:20.465Z,961.83
2022-09-14T01:08:20.706Z,961.83
2022-09-14T01:09:20.947Z,961.80
2022-09-14T01:10:21.196Z,961.79
2022-09-14T01:11:21.437Z,961.80
2022-09-14T01:12:21.685Z,961.78
2022-09-14T01:13:21.926Z,961.78
2022-09-14T01:14:22.177Z,961.80
2022-09-14T01:15:22.417Z,961.79
2022-09-14T01:16:22.696Z,961.80
2022-09-14T01:17:23.139Z,961.79
2022-09-14T01:18:23.229Z,961.74
2022-09-14T01:19:23.471Z,961.73
2022-09-14T01:20:23.718Z,961.73
2022-09-14T01:21:23.950Z,961.68
2022-09-14T01:22:25.850Z,961.67
2022-09-14T01:23:24.541Z,961.67
2022-09-14T01:24:24.784Z,961.68
2022-09-14T01:25:25.021Z,961.67
2022-09-14T01:26:25.272Z,961.66
2022-09-14T01:27:25.511Z,961.68
2022-09-14T01:28:25.763Z,961.67
2022-09-14T01:29:26.014Z,961.69
2022-09-14T01:30:26.260Z,961.63
2022-09-14T01:31:26.579Z,961.62
2022-09-14T01:32:26.792Z,961.57
2022-09-14T01:33:27.032Z,961.53
2022-09-14T01:34:27.274Z,961.55
2022-09-14T01:35:27.514Z,961.54
2022-09-14T01:36:27.762Z,961.51
2022-09-14T01:37:28.035Z,961.48
2022-09-14T01:38:28.277Z,961.48
2022-09-14T01:39:28.545Z,961.44
2022-09-14T01:40:28.865Z,961.46
2022-09-14T01:41:29.096Z,961.46
2022-09-14T01:42:30.137Z,961.52
2022-09-14T01:43:29.564Z,961.57
2022-09-14T01:44:29.808Z,961.60
2022-09-14T01:45:30.069Z,961.64
2022-09-14T01:46:30.308Z,961.66
2022-09-14T01:47:31.373Z,961.72
2022-09-14T01:48:30.795Z,961.74
2022-09-14T01:49:31.029Z,961.74
2022-09-14T01:50:31.273Z,961.73
2022-09-14T01:51:31.508Z,961.69
2022-09-14T01:52:32.586Z,961.65
2022-09-14T01:53:32.009Z,961.63
2022-09-14T01:54:32.290Z,961.62
2022-09-14T01:55:32.530Z,961.63
2022-09-14T01:56:32.772Z,961.61
2022-09-14T01:57:33.830Z,961.59
2022-09-14T01:58:33.252Z,961.58
2022-09-14T01:59:33.491Z,961.55
2022-09-14T02:00:33.852Z,961.50
2022-09-14T02:01:33.962Z,961.49
2022-09-14T02:02:34.348Z,961.50
2022-09-14T02:03:34.559Z,961.45
2022-09-14T02:04:34.881Z,961.48
2022-09-14T02:05:35.122Z,961.50
2022-09-14T02:06:35.353Z,961.50
2022-09-14T02:07:35.594Z,961.55
2022-09-14T02:08:35.842Z,961.55
2022-09-14T02:09:36.074Z,961.55
2022-09-14T02:10:36.325Z,961.56
2022-09-14T02:11:36.555Z,961.50
2022-09-14T02:12:37.135Z,961.48
2022-09-14T02:13:37.055Z,961.41
2022-09-14T02:14:37.297Z,961.38
2022-09-14T02:15:37.545Z,961.34
2022-09-14T02:16:37.820Z,961.32
2022-09-14T02:17:38.846Z,961.34
2022-09-14T02:18:38.276Z,961.35
2022-09-14T02:19:38.509Z,961.41
2022-09-14T02:20:38.758Z,961.41
2022-09-14T02:21:38.997Z,961.35
2022-09-14T02:22:40.160Z,961.40
2022-09-14T02:23:39.459Z,961.31
2022-09-14T02:24:39.699Z,961.29
2022-09-14T02:25:40.890Z,961.24
2022-09-14T02:26:40.189Z,961.19
2022-09-14T02:27:41.244Z,961.17
2022-09-14T02:28:40.670Z,961.14
2022-09-14T02:29:40.911Z,961.18
2022-09-14T02:30:41.160Z,961.13
2022-09-14T02:31:41.452Z,961.14
2022-09-14T02:32:41.679Z,961.15
2022-09-14T02:33:41.941Z,961.10
2022-09-14T02:34:42.247Z,961.08
2022-09-14T02:35:42.492Z,961.07
2022-09-14T02:36:42.723Z,961.04
2022-09-14T02:37:42.993Z,961.06
2022-09-14T02:38:43.243Z,961.05
2022-09-14T02:39:43.540Z,961.06
2022-09-14T02:40:43.774Z,961.07
2022-09-14T02:41:44.025Z,961.15
2022-09-14T02:42:45.105Z,961.17
2022-09-14T02:43:44.581Z,961.22
2022-09-14T02:44:44.839Z,961.23
2022-09-14T02:45:45.076Z,961.25
2022-09-14T02:46:45.357Z,961.29
2022-09-14T02:47:46.425Z,961.28
2022-09-14T02:48:45.857Z,961.31
2022-09-14T02:49:46.096Z,961.37
2022-09-14T02:50:46.347Z,961.32
2022-09-14T02:51:46.588Z,961.32
2022-09-14T02:52:47.668Z,961.26
2022-09-14T02:53:47.088Z,961.25
2022-09-14T02:54:47.328Z,961.21
2022-09-14T02:55:47.569Z,961.22
2022-09-14T02:56:47.809Z,961.23
2022-09-14T02:57:48.887Z,961.22
2022-09-14T02:58:48.377Z,961.23
2022-09-14T02:59:48.589Z,961.23
2022-09-14T03:00:48.848Z,961.24
2022-09-14T03:01:49.139Z,961.23
2022-09-14T03:02:49.378Z,961.29
2022-09-14T03:03:49.618Z,961.30
2022-09-14T03:04:49.975Z,961.26
2022-09-14T03:05:50.201Z,961.28
2022-09-14T03:06:50.432Z,961.32
2022-09-14T03:07:50.682Z,961.30
2022-09-14T03:08:51.055Z,961.39
2022-09-14T03:09:51.263Z,961.37
2022-09-14T03:10:51.494Z,961.38
2022-09-14T03:11:51.744Z,961.40
2022-09-14T03:12:52.144Z,961.43
2022-09-14T03:13:52.254Z,961.32
2022-09-14T03:14:52.494Z,961.34
2022-09-14T03:15:52.877Z,961.30
2022-09-14T03:16:53.076Z,961.35
2022-09-14T03:17:54.135Z,961.26
2022-09-14T03:18:53.556Z,961.25
2022-09-14T03:19:53.796Z,961.22
2022-09-14T03:20:54.036Z,961.28
2022-09-14T03:21:54.285Z,961.24
2022-09-14T03:22:56.256Z,961.29
2022-09-14T03:23:54.825Z,961.26
2022-09-14T03:24:55.068Z,961.26
2022-09-14T03:25:55.308Z,961.25
2022-09-14T03:26:55.548Z,961.32
2022-09-14T03:27:55.788Z,961.26
2022-09-14T03:28:56.039Z,961.19
2022-09-14T03:29:56.289Z,961.21
2022-09-14T03:30:56.662Z,961.23
2022-09-14T03:31:56.760Z,961.23
2022-09-14T03:32:57.010Z,961.25
2022-09-14T03:33:57.258Z,961.26
2022-09-14T03:34:57.513Z,961.24
2022-09-14T03:35:57.751Z,961.29
2022-09-14T03:36:57.992Z,961.27
2022-09-14T03:37:58.232Z,961.23
2022-09-14T03:38:58.475Z,961.24
2022-09-14T03:39:58.745Z,961.23
2022-09-14T03:40:59.003Z,961.21
2022-09-14T03:41:59.250Z,961.23
2022-09-14T03:43:00.299Z,961.17
2022-09-14T03:43:59.723Z,961.20
2022-09-14T03:44:59.964Z,961.19
2022-09-14T03:46:00.212Z,961.18
2022-09-14T03:47:00.525Z,961.18
2022-09-14T03:48:01.565Z,961.16
2022-09-14T03:49:00.994Z,961.15
2022-09-14T03:50:01.236Z,961.12
2022-09-14T03:51:01.476Z,961.08
2022-09-14T03:52:01.717Z,961.05
2022-09-14T03:53:02.789Z,961.02
2022-09-14T03:54:02.226Z,960.98
2022-09-14T03:55:02.502Z,960.94
2022-09-14T03:56:02.776Z,960.94
2022-09-14T03:57:03.018Z,960.90
2022-09-14T03:58:04.068Z,960.88
2022-09-14T03:59:03.489Z,960.87
2022-09-14T04:00:03.729Z,960.86
2022-09-14T04:01:03.970Z,960.89
2022-09-14T04:02:04.286Z,960.91
2022-09-14T04:03:04.519Z,960.87
2022-09-14T04:04:04.740Z,960.85
2022-09-14T04:05:04.980Z,960.81
2022-09-14T04:06:05.279Z,960.82
2022-09-14T04:07:05.511Z,960.82
2022-09-14T04:08:05.761Z,960.85
2022-09-14T04:09:06.000Z,960.90
2022-09-14T04:10:06.240Z,960.93
2022-09-14T04:11:06.523Z,961.02
2022-09-14T04:12:06.763Z,961.04
2022-09-14T04:13:07.133Z,961.04
2022-09-14T04:14:07.333Z,961.03
2022-09-14T04:15:07.573Z,961.03
2022-09-14T04:16:07.855Z,961.04
2022-09-14T04:17:08.115Z,961.00
2022-09-14T04:18:09.147Z,961.01
2022-09-14T04:19:08.692Z,961.01
2022-09-14T04:20:08.933Z,961.01
2022-09-14T04:21:09.165Z,961.06
2022-09-14T04:22:09.418Z,961.10
2022-09-14T04:23:10.588Z,961.13
2022-09-14T04:24:15.036Z,961.16
2022-09-14T04:25:11.117Z,961.17
2022-09-14T04:26:10.417Z,961.13
2022-09-14T04:27:10.657Z,961.16
2022-09-14T04:28:20.213Z,961.14
2022-09-14T04:29:12.229Z,961.13
2022-09-14T04:30:11.537Z,961.12
2022-09-14T04:31:11.832Z,961.12
2022-09-14T04:32:12.099Z,961.13
2022-09-14T04:33:12.349Z,961.11
2022-09-14T04:34:12.591Z,961.09
2022-09-14T04:35:12.832Z,961.05
2022-09-14T04:36:13.071Z,961.05
2022-09-14T04:37:13.310Z,961.06
2022-09-14T04:38:13.560Z,961.04
2022-09-14T04:39:13.928Z,961.07
2022-09-14T04:40:14.181Z,961.07
2022-09-14T04:41:14.422Z,961.03
2022-09-14T04:42:14.662Z,961.05
2022-09-14T04:43:15.133Z,961.04
2022-09-14T04:44:15.212Z,961.05
2022-09-14T04:52:36.464Z,960.99
2022-09-14T04:53:36.694Z,960.99
2022-09-14T04:54:36.933Z,960.94
2022-09-14T04:55:37.155Z,960.98
2022-09-14T04:56:37.386Z,960.91
2022-09-14T04:57:37.615Z,960.88
2022-09-14T04:58:37.846Z,960.88
2022-09-14T04:59:38.075Z,960.86
2022-09-14T05:00:38.316Z,960.86
2022-09-14T05:01:38.563Z,960.83
2022-09-14T05:02:38.856Z,960.82
2022-09-14T05:03:39.112Z,960.78
2022-09-14T05:04:39.348Z,960.78
2022-09-14T05:05:44.192Z,960.79
2022-09-14T05:06:40.807Z,960.83
2022-09-14T05:07:40.097Z,960.81
2022-09-14T05:08:40.330Z,960.82
2022-09-14T05:09:40.569Z,960.79
2022-09-14T05:10:40.798Z,960.70
2022-09-14T05:11:41.051Z,960.75
2022-09-14T05:12:41.287Z,960.76
2022-09-14T05:13:42.700Z,960.72
2022-09-14T05:14:41.820Z,960.72
2022-09-14T05:15:42.093Z,960.73
2022-09-14T05:16:42.303Z,960.74
2022-09-14T05:17:42.570Z,960.72
2022-09-14T05:18:42.836Z,960.71
2022-09-14T05:19:43.091Z,960.70
2022-09-14T05:20:43.332Z,960.71
2022-09-14T05:21:43.562Z,960.70
2022-09-14T05:22:43.792Z,960.69
2022-09-14T05:23:44.042Z,960.67
2022-09-14T05:24:44.282Z,960.67
2022-09-14T05:25:44.524Z,960.68
2022-09-14T05:26:44.764Z,960.68
2022-09-14T05:27:44.993Z,960.67
2022-09-14T05:28:45.234Z,960.74
2022-09-14T05:29:45.475Z,960.70
2022-09-14T05:30:45.739Z,960.68
2022-09-14T05:31:45.975Z,960.63
2022-09-14T05:32:46.215Z,960.63
2022-09-14T05:33:46.459Z,960.62
2022-09-14T05:34:46.685Z,960.60
2022-09-14T05:35:46.974Z,960.58
2022-09-14T05:36:47.156Z,960.57
2022-09-14T05:37:47.397Z,960.58
2022-09-14T05:38:47.636Z,960.57
2022-09-14T05:39:47.894Z,960.60
2022-09-14T05:40:48.158Z,960.65
2022-09-14T05:41:48.396Z,960.63
2022-09-14T05:42:48.627Z,960.64
2022-09-14T05:43:48.934Z,960.65
2022-09-14T05:44:49.160Z,960.68
2022-09-14T05:45:49.399Z,960.69
2022-09-14T05:46:49.702Z,960.68
2022-09-14T05:47:49.921Z,960.67
2022-09-14T05:48:50.256Z,960.71
2022-09-14T05:49:50.470Z,960.75
2022-09-14T05:50:50.722Z,960.74
2022-09-14T05:51:50.970Z,960.75
2022-09-14T05:52:51.222Z,960.76
2022-09-14T05:53:51.529Z,960.73
2022-09-14T05:54:51.784Z,960.76
2022-09-14T05:55:52.031Z,960.72
2022-09-14T05:56:52.283Z,960.73
2022-09-14T05:57:52.532Z,960.72
2022-09-14T05:58:52.822Z,960.61
2022-09-14T05:59:53.073Z,960.67
2022-09-14T06:00:53.323Z,960.71
2022-09-14T06:01:53.645Z,960.75
2022-09-14T06:02:53.873Z,960.73
2022-09-14T06:03:54.144Z,960.78
2022-09-14T06:04:54.435Z,960.76
2022-09-14T06:05:54.687Z,960.76
2022-09-14T06:07:14.950Z,960.77
2022-09-14T06:07:56.246Z,960.86
2022-09-14T06:08:55.475Z,960.79
2022-09-14T06:09:55.725Z,960.76
2022-09-14T06:10:55.986Z,960.74
2022-09-14T06:11:56.266Z,960.77
2022-09-14T06:12:56.516Z,960.85
2022-09-14T06:13:56.798Z,960.81
2022-09-14T06:14:57.074Z,960.81
2022-09-14T06:15:57.317Z,960.84
2022-09-14T06:16:57.577Z,960.85
2022-09-14T06:17:57.829Z,960.87
2022-09-14T06:18:58.079Z,960.91
2022-09-14T06:20:02.237Z,960.93
2022-09-14T06:20:59.579Z,960.96
2022-09-14T06:21:58.890Z,960.96
2022-09-14T06:22:59.148Z,961.02
2022-09-14T06:23:59.409Z,961.05
2022-09-14T06:24:59.660Z,961.07
2022-09-14T06:25:59.920Z,961.09
2022-09-14T06:27:00.171Z,961.08
2022-09-14T06:28:00.420Z,961.14
2022-09-14T06:29:00.683Z,961.12
2022-09-14T06:30:01.068Z,961.15
2022-09-14T06:31:01.272Z,961.20
2022-09-14T06:32:01.548Z,961.23
2022-09-14T06:33:01.792Z,961.29
2022-09-14T06:34:02.042Z,961.44
2022-09-14T06:35:02.293Z,961.51
2022-09-14T06:36:02.561Z,961.58
2022-09-14T06:37:02.813Z,961.61
2022-09-14T06:38:03.101Z,961.61
2022-09-14T06:39:03.361Z,961.52
2022-09-14T06:40:03.656Z,961.40
2022-09-14T06:41:03.905Z,961.37
2022-09-14T06:42:04.155Z,961.40
2022-09-14T06:43:04.414Z,961.42
2022-09-14T06:44:04.667Z,961.38
2022-09-14T06:45:04.915Z,961.36
2022-09-14T06:46:05.180Z,961.34
2022-09-14T06:47:05.426Z,961.37
2022-09-14T06:48:05.687Z,961.39
2022-09-14T06:49:05.944Z,961.40
2022-09-14T06:50:06.204Z,961.35
2022-09-14T06:51:06.447Z,961.40
2022-09-14T06:52:06.698Z,961.41
2022-09-14T06:53:06.948Z,961.39
2022-09-14T06:54:07.208Z,961.41
2022-09-14T06:55:07.460Z,961.40
2022-09-14T06:56:07.730Z,961.37
2022-09-14T06:57:07.980Z,961.32
2022-09-14T06:58:08.230Z,961.31
2022-09-14T06:59:08.480Z,961.27
2022-09-14T07:00:08.735Z,961.25
2022-09-14T07:01:08.981Z,961.23
2022-09-14T07:02:09.241Z,961.23
2022-09-14T07:03:09.537Z,961.24
2022-09-14T07:04:09.810Z,961.26
2022-09-14T07:05:10.058Z,961.31
2022-09-14T07:06:10.312Z,961.26
2022-09-14T07:07:10.574Z,961.25
2022-09-14T07:08:12.477Z,961.29
2022-09-14T07:09:11.134Z,961.29
2022-09-14T07:10:11.395Z,961.34
2022-09-14T07:11:11.643Z,961.32
2022-09-14T07:12:11.903Z,961.34
2022-09-14T07:13:12.155Z,961.37
2022-09-14T07:14:12.429Z,961.36
2022-09-14T07:15:12.678Z,961.43
2022-09-14T07:16:12.925Z,961.39
2022-09-14T07:17:13.175Z,961.37
2022-09-14T07:18:13.446Z,961.40
2022-09-14T07:19:13.707Z,961.37
2022-09-14T07:20:13.955Z,961.39
2022-09-14T07:21:14.206Z,961.38
2022-09-14T07:22:14.457Z,961.38
2022-09-14T07:23:14.717Z,961.30
2022-09-14T07:24:14.994Z,961.36
2022-09-14T07:25:15.228Z,961.35
2022-09-14T07:26:15.480Z,961.34
2022-09-14T07:27:15.728Z,961.36
2022-09-14T07:28:15.979Z,961.35
2022-09-14T07:29:16.248Z,961.35
2022-09-14T07:30:16.498Z,961.29
2022-09-14T07:31:16.802Z,961.34
2022-09-14T07:32:17.030Z,961.34
2022-09-14T07:33:17.290Z,961.31
2022-09-14T07:34:17.551Z,961.26
2022-09-14T07:35:17.800Z,961.25
2022-09-14T07:36:18.051Z,961.26
2022-09-14T07:37:18.346Z,961.29
2022-09-14T07:38:27.094Z,961.27
2022-09-14T07:39:19.822Z,961.24
2022-09-14T07:40:19.205Z,961.23
2022-09-14T07:41:19.453Z,961.24
2022-09-14T07:42:19.712Z,961.16
2022-09-14T07:43:19.963Z,961.17
2022-09-14T07:44:20.222Z,961.16
2022-09-14T07:45:20.483Z,961.28
2022-09-14T07:46:20.856Z,961.08
2022-09-14T07:47:20.972Z,961.15
2022-09-14T07:48:21.224Z,961.16
2022-09-14T07:49:21.495Z,961.13
2022-09-14T07:50:21.811Z,961.14
2022-09-14T07:51:22.055Z,961.15
2022-09-14T07:52:22.315Z,961.14
2022-09-14T07:53:22.565Z,961.17
2022-09-14T07:54:22.826Z,961.16
2022-09-14T07:55:23.095Z,961.18
2022-09-14T07:56:23.346Z,961.18
2022-09-14T07:57:39.384Z,961.27
2022-09-14T07:58:24.828Z,961.26
2022-09-14T07:59:35.482Z,961.26
2022-09-14T08:00:25.398Z,961.27
2022-09-14T08:01:24.752Z,961.32
2022-09-14T08:02:25.057Z,961.28
2022-09-14T08:03:25.362Z,961.39
2022-09-14T08:04:25.609Z,961.34
2022-09-14T08:05:25.888Z,961.36
2022-09-14T08:06:26.159Z,961.33
2022-09-14T08:07:26.439Z,961.34
2022-09-14T08:08:26.691Z,961.30
2022-09-14T08:09:26.969Z,961.33
2022-09-14T08:10:27.230Z,961.33
2022-09-14T08:11:27.479Z,961.34
2022-09-14T08:12:27.731Z,961.30
2022-09-14T08:13:27.992Z,961.34
2022-09-14T08:14:28.251Z,961.27
2022-09-14T08:15:28.811Z,961.30
2022-09-14T08:16:28.943Z,961.26
2022-09-14T08:17:29.163Z,961.21
2022-09-14T08:18:29.414Z,961.23
2022-09-14T08:19:29.672Z,961.18
2022-09-14T08:20:29.933Z,961.17
2022-09-14T08:21:30.205Z,961.18
2022-09-14T08:22:30.454Z,961.23
2022-09-14T08:23:30.704Z,961.21
2022-09-14T08:24:30.975Z,961.27
2022-09-14T08:25:31.238Z,961.29
2022-09-14T08:26:31.499Z,961.31
2022-09-14T08:27:31.756Z,961.30
2022-09-14T08:28:32.044Z,961.38
2022-09-14T08:29:32.296Z,961.37
2022-09-14T08:30:32.546Z,961.34
2022-09-14T08:31:32.860Z,961.29
2022-09-14T08:32:33.117Z,961.29
2022-09-14T08:33:33.370Z,961.25
2022-09-14T08:34:33.686Z,961.28
2022-09-14T08:35:56.355Z,961.29
2022-09-14T08:36:35.188Z,961.24
2022-09-14T08:37:34.518Z,961.20
2022-09-14T08:38:34.778Z,961.25
2022-09-14T08:39:35.052Z,961.28
2022-09-14T08:40:35.349Z,961.26
2022-09-14T08:41:35.599Z,961.27
2022-09-14T08:42:35.869Z,961.23
2022-09-14T08:43:36.120Z,961.17
2022-09-14T08:44:36.390Z,961.17
2022-09-14T08:45:36.738Z,961.14
2022-09-14T08:46:36.951Z,961.12
2022-09-14T08:47:37.201Z,961.08
2022-09-14T08:48:37.464Z,961.02
2022-09-14T08:49:37.724Z,961.00
2022-09-14T08:50:38.964Z,960.99
2022-09-14T08:51:38.282Z,961.01
2022-09-14T08:52:38.563Z,960.96
2022-09-14T08:53:38.822Z,961.00
2022-09-14T08:54:39.073Z,961.01
2022-09-14T08:55:39.323Z,960.99
2022-09-14T08:56:39.584Z,961.01
2022-09-14T08:57:39.841Z,960.95
2022-09-14T08:58:45.244Z,960.93
2022-09-14T08:59:41.383Z,961.00
2022-09-14T09:00:40.729Z,961.01
2022-09-14T09:01:41.005Z,961.03
2022-09-14T09:02:41.263Z,961.12
2022-09-14T09:03:41.542Z,961.12
2022-09-14T09:04:41.786Z,961.10
2022-09-14T09:05:42.037Z,961.13
2022-09-14T09:06:42.307Z,961.11
2022-09-14T09:07:42.578Z,961.15
2022-09-14T09:08:42.837Z,961.14
2022-09-14T09:09:43.127Z,961.11
2022-09-14T09:10:43.388Z,961.13
2022-09-14T09:11:43.659Z,961.14
2022-09-14T09:12:43.919Z,961.09
2022-09-14T09:13:44.169Z,961.07
2022-09-14T09:14:44.910Z,961.09
2022-09-14T09:15:44.719Z,961.11
2022-09-14T09:16:45.045Z,961.17
2022-09-14T09:17:45.280Z,961.20
2022-09-14T09:18:45.531Z,961.16
2022-09-14T09:19:45.791Z,961.18
2022-09-14T09:20:46.052Z,961.17
2022-09-14T09:21:46.307Z,961.16
2022-09-14T09:22:46.552Z,961.20
2022-09-14T09:23:46.812Z,961.22
2022-09-14T09:24:47.071Z,961.27
2022-09-14T09:25:47.323Z,961.21
2022-09-14T09:26:47.573Z,961.26
2022-09-14T09:27:47.823Z,961.30
2022-09-14T09:28:48.084Z,961.29
2022-09-14T09:29:48.344Z,961.32
2022-09-14T09:30:48.595Z,961.29
2022-09-14T09:31:48.960Z,961.31
2022-09-14T09:32:49.094Z,961.32
2022-09-14T09:33:49.455Z,961.29
2022-09-14T09:34:49.654Z,961.31
2022-09-14T09:35:49.905Z,961.29
2022-09-14T09:36:50.157Z,961.29
2022-09-14T09:37:50.406Z,961.29
2022-09-14T09:38:50.749Z,961.31
2022-09-14T09:39:51.037Z,961.31
2022-09-14T09:40:51.286Z,961.29
2022-09-14T09:41:51.556Z,961.33
2022-09-14T09:42:51.808Z,961.29
2022-09-14T09:43:52.068Z,961.29
2022-09-14T09:44:52.368Z,961.24
2022-09-14T09:45:52.694Z,961.27
2022-09-14T09:46:53.030Z,961.26
2022-09-14T09:47:53.270Z,961.26
2022-09-14T09:48:53.532Z,961.29
2022-09-14T09:49:53.790Z,961.28
2022-09-14T09:50:54.040Z,961.31
2022-09-14T09:51:54.300Z,961.34
2022-09-14T09:52:55.532Z,961.35
2022-09-14T09:53:54.848Z,961.40
2022-09-14T09:54:55.100Z,961.43
2022-09-14T09:55:55.351Z,961.38
2022-09-14T09:56:55.612Z,961.37
2022-09-14T09:57:55.862Z,961.36
2022-09-14T09:58:56.112Z,961.33
2022-09-14T09:59:56.373Z,961.34
2022-09-14T10:00:56.665Z,961.28
2022-09-14T10:01:56.984Z,961.30
2022-09-14T10:02:57.237Z,961.29
2022-09-14T10:03:57.492Z,961.32
2022-09-14T10:04:57.745Z,961.29
2022-09-14T10:05:57.995Z,961.28
2022-09-14T10:06:58.254Z,961.26
2022-09-14T10:07:58.512Z,961.27
2022-09-14T10:08:58.767Z,961.27
2022-09-14T10:09:59.025Z,961.27
2022-09-14T10:10:59.285Z,961.27
2022-09-14T10:11:59.593Z,961.26
2022-09-14T10:12:59.836Z,961.22
2022-09-14T10:14:00.096Z,961.21
2022-09-14T10:15:00.356Z,961.16
2022-09-14T10:16:00.673Z,961.10
2022-09-14T10:17:00.908Z,961.12
2022-09-14T10:18:01.187Z,961.10
2022-09-14T10:19:01.438Z,961.02
2022-09-14T10:20:01.697Z,961.04
2022-09-14T10:21:01.950Z,961.00
2022-09-14T10:22:03.148Z,960.96
2022-09-14T10:23:02.467Z,960.90
2022-09-14T10:24:02.730Z,960.89
2022-09-14T10:25:02.999Z,960.82
2022-09-14T10:26:03.269Z,960.88
2022-09-14T10:27:03.520Z,960.86
2022-09-14T10:28:03.791Z,960.84
2022-09-14T10:29:04.040Z,960.78
2022-09-14T10:30:04.300Z,960.78
2022-09-14T10:31:05.551Z,960.78
2022-09-14T10:32:04.859Z,960.74
2022-09-14T10:33:05.118Z,960.71
2022-09-14T10:34:05.380Z,960.67
2022-09-14T10:35:05.684Z,960.62
2022-09-14T10:36:05.954Z,960.60
2022-09-14T10:37:06.252Z,960.59
2022-09-14T10:38:06.503Z,960.58
2022-09-14T10:39:06.774Z,960.56
2022-09-14T10:40:07.048Z,960.53
2022-09-14T10:41:07.294Z,960.54
2022-09-14T10:42:07.556Z,960.54
2022-09-14T10:43:07.805Z,960.51
2022-09-14T10:44:08.065Z,960.50
2022-09-14T10:45:08.348Z,960.46
2022-09-14T10:46:08.640Z,960.43
2022-09-14T10:47:08.913Z,960.34
2022-09-14T10:48:09.177Z,960.30
2022-09-14T10:49:09.508Z,960.27
2022-09-14T10:50:09.785Z,960.31
2022-09-14T10:51:10.027Z,960.25
2022-09-14T10:52:10.277Z,960.25
2022-09-14T10:53:10.538Z,960.20
2022-09-14T10:54:10.788Z,960.21
2022-09-14T10:55:11.039Z,960.19
2022-09-14T10:56:11.298Z,960.08
2022-09-14T10:57:11.550Z,960.04
2022-09-14T10:58:17.233Z,960.04
2022-09-14T10:59:13.039Z,960.00
2022-09-14T11:00:12.385Z,959.99
2022-09-14T11:01:12.694Z,959.97
2022-09-14T11:02:13.042Z,959.96
2022-09-14T11:03:13.396Z,959.96
2022-09-14T11:04:13.488Z,959.95
2022-09-14T11:05:13.795Z,959.94
2022-09-14T11:06:14.051Z,959.96
2022-09-14T11:07:14.326Z,959.92
2022-09-14T11:08:14.593Z,959.90
2022-09-14T11:09:14.850Z,959.87
2022-09-14T11:10:15.103Z,959.86
2022-09-14T11:11:15.353Z,959.85
2022-09-14T11:12:15.603Z,959.85
2022-09-14T11:13:15.954Z,959.83
2022-09-14T11:14:16.212Z,959.82
2022-09-14T11:15:16.465Z,959.85
2022-09-14T11:16:16.759Z,959.80
2022-09-14T11:17:17.007Z,959.83
2022-09-14T11:18:17.266Z,959.82
2022-09-14T11:19:17.525Z,959.76
2022-09-14T11:20:17.776Z,959.76
2022-09-14T11:21:18.056Z,959.71
2022-09-14T11:22:18.326Z,959.66
2022-09-14T11:23:18.583Z,959.69
2022-09-14T11:24:18.857Z,959.62
2022-09-14T11:25:19.117Z,959.56
2022-09-14T11:26:19.367Z,959.56
2022-09-14T11:27:19.618Z,959.55
2022-09-14T11:28:19.882Z,959.56
2022-09-14T11:29:20.130Z,959.51
2022-09-14T11:30:20.389Z,959.44
2022-09-14T11:31:20.727Z,959.50
2022-09-14T11:32:22.212Z,959.42
2022-09-14T11:33:21.190Z,959.40
2022-09-14T11:34:21.439Z,959.44
2022-09-14T11:35:21.702Z,959.49
2022-09-14T11:36:21.971Z,959.46
2022-09-14T11:37:22.230Z,959.49
2022-09-14T11:38:22.492Z,959.46
2022-09-14T11:39:22.741Z,959.48
2022-09-14T11:40:23.057Z,959.46
2022-09-14T11:41:23.333Z,959.50
2022-09-14T11:42:23.592Z,959.47
2022-09-14T11:43:23.842Z,959.48
2022-09-14T11:44:24.120Z,959.53
2022-09-14T11:45:24.378Z,959.46
2022-09-14T11:46:24.694Z,959.44
2022-09-14T11:47:24.936Z,959.47
2022-09-14T11:48:42.443Z,959.48
2022-09-14T11:49:26.432Z,959.46
2022-09-14T11:50:25.744Z,959.47
2022-09-14T11:51:26.005Z,959.46
2022-09-14T11:52:26.274Z,959.49
2022-09-14T11:53:26.526Z,959.49
2022-09-14T11:54:26.783Z,959.47
2022-09-14T11:55:27.084Z,959.49
2022-09-14T11:56:27.354Z,959.48
2022-09-14T11:57:27.597Z,959.46
2022-09-14T11:58:27.857Z,959.42
2022-09-14T11:59:28.097Z,959.40
2022-09-14T12:00:28.368Z,959.43
2022-09-14T12:01:28.621Z,959.40
2022-09-14T12:02:28.931Z,959.42
2022-09-14T12:03:29.249Z,959.43
2022-09-14T12:04:29.508Z,959.44
2022-09-14T12:05:29.786Z,959.39
2022-09-14T12:06:30.040Z,959.38
2022-09-14T12:07:30.306Z,959.36
2022-09-14T12:08:30.551Z,959.35
2022-09-14T12:09:30.810Z,959.34
2022-09-14T12:10:31.071Z,959.31
2022-09-14T12:11:31.321Z,959.31
2022-09-14T12:12:31.580Z,959.27
2022-09-14T12:13:31.841Z,959.18
2022-09-14T12:14:32.098Z,959.16
2022-09-14T12:15:32.430Z,959.16
2022-09-14T12:16:34.629Z,959.14
2022-09-14T12:17:40.030Z,959.19
2022-09-14T12:18:34.203Z,959.20
2022-09-14T12:19:33.514Z,959.25
2022-09-14T12:20:33.773Z,959.19
2022-09-14T12:21:34.032Z,959.20
2022-09-14T12:22:34.285Z,959.16
2022-09-14T12:23:34.536Z,959.14
2022-09-14T12:24:34.786Z,959.14
2022-09-14T12:25:35.048Z,959.15
2022-09-14T12:26:35.296Z,959.16
2022-09-14T12:27:35.546Z,959.11
2022-09-14T12:28:35.813Z,959.11
2022-09-14T12:29:36.056Z,959.09
2022-09-14T12:30:40.476Z,959.14
2022-09-14T12:31:36.659Z,959.06
2022-09-14T12:32:36.906Z,959.06
2022-09-14T12:33:37.156Z,958.98
2022-09-14T12:34:37.408Z,959.04
2022-09-14T12:35:37.680Z,958.98
2022-09-14T12:36:37.939Z,959.00
2022-09-14T12:37:38.199Z,958.94
2022-09-14T12:38:38.460Z,958.88